createdAt,value
2023-07-22T00:00:57.196Z,10.39
2023-07-22T00:03:25.208Z,10.43
2023-07-22T00:06:09.996Z,10.42
2023-07-22T00:08:38.167Z,10.39
2023-07-22T00:11:07.868Z,10.44
2023-07-22T00:13:38.064Z,10.48
2023-07-22T00:16:08.997Z,10.52
2023-07-22T00:18:36.550Z,10.58
2023-07-22T00:21:03.439Z,10.59
2023-07-22T00:23:31.939Z,10.60
2023-07-22T00:25:58.429Z,10.57
2023-07-22T00:28:24.909Z,10.61
2023-07-22T00:30:52.642Z,10.60
2023-07-22T00:33:19.203Z,10.55
2023-07-22T00:35:51.491Z,10.50
2023-07-22T00:38:19.016Z,10.61
2023-07-22T00:40:46.075Z,10.59
2023-07-22T00:43:13.958Z,10.60
2023-07-22T00:45:40.428Z,10.60
2023-07-22T00:48:09.420Z,10.70
2023-07-22T00:50:36.376Z,10.66
2023-07-22T00:53:03.092Z,10.66
2023-07-22T00:55:30.605Z,10.70
2023-07-22T00:57:57.144Z,10.68
2023-07-22T01:00:23.634Z,10.75
2023-07-22T01:02:50.552Z,10.77
2023-07-22T01:09:08.220Z,10.70
2023-07-22T01:11:34.685Z,10.66
2023-07-22T01:14:02.147Z,10.69
2023-07-22T01:16:29.379Z,10.68
2023-07-22T01:18:56.382Z,10.71
2023-07-22T01:21:26.284Z,10.70
2023-07-22T01:23:54.443Z,10.76
2023-07-22T01:26:21.034Z,10.75
2023-07-22T01:28:47.789Z,10.83
2023-07-22T01:31:16.415Z,10.79
2023-07-22T01:33:42.979Z,10.79
2023-07-22T01:36:09.509Z,10.82
2023-07-22T01:38:37.592Z,10.85
2023-07-22T01:41:04.078Z,10.79
2023-07-22T01:43:30.664Z,10.80
2023-07-22T01:45:57.211Z,10.84
2023-07-22T01:48:24.671Z,10.80
2023-07-22T01:50:51.186Z,10.89
2023-07-22T01:53:17.667Z,10.78
2023-07-22T01:55:45.244Z,10.73
2023-07-22T01:58:12.143Z,10.70
2023-07-22T02:00:38.625Z,10.63
2023-07-22T02:03:05.349Z,10.58
2023-07-22T02:05:32.062Z,10.61
2023-07-22T02:07:58.618Z,10.61
2023-07-22T02:10:25.159Z,10.67
2023-07-22T02:12:51.691Z,10.68
2023-07-22T02:15:18.223Z,10.66
2023-07-22T02:17:44.816Z,10.66
2023-07-22T02:20:11.836Z,10.64
2023-07-22T02:22:38.368Z,10.59
2023-07-22T02:25:05.461Z,10.58
2023-07-22T02:27:31.936Z,10.58
2023-07-22T02:29:58.594Z,10.55
2023-07-22T02:32:25.091Z,10.48
2023-07-22T02:34:51.567Z,10.46
2023-07-22T02:37:18.889Z,10.43
2023-07-22T02:39:45.817Z,10.43
2023-07-22T02:42:12.465Z,10.34
2023-07-22T02:44:38.959Z,10.41
2023-07-22T02:47:05.543Z,10.36
2023-07-22T02:49:32.095Z,10.31
2023-07-22T02:51:58.544Z,10.31
2023-07-22T02:54:24.973Z,10.28
2023-07-22T02:56:51.490Z,10.28
2023-07-22T02:59:19.015Z,10.25
2023-07-22T03:01:45.763Z,10.25
2023-07-22T03:04:13.635Z,10.24
2023-07-22T03:06:43.614Z,10.20
2023-07-22T03:09:13.941Z,10.18
2023-07-22T03:11:40.428Z,10.18
2023-07-22T03:14:06.912Z,10.16
2023-07-22T03:16:33.439Z,10.16
2023-07-22T03:18:59.982Z,10.17
2023-07-22T03:21:26.497Z,10.12
2023-07-22T03:23:52.953Z,10.11
2023-07-22T03:26:21.189Z,10.13
2023-07-22T03:28:47.714Z,10.16
2023-07-22T03:31:14.261Z,10.13
2023-07-22T03:33:40.833Z,10.14
2023-07-22T03:36:07.992Z,10.17
2023-07-22T03:38:35.272Z,10.18
2023-07-22T03:41:01.990Z,10.16
2023-07-22T03:43:28.681Z,10.15
2023-07-22T03:45:55.199Z,10.15
2023-07-22T03:48:21.813Z,10.18
2023-07-22T03:50:50.403Z,10.25
2023-07-22T03:53:18.060Z,10.20
2023-07-22T03:55:44.537Z,10.20
2023-07-22T03:58:11.327Z,10.22
2023-07-22T04:00:39.507Z,10.23
2023-07-22T04:03:06.098Z,10.24
2023-07-22T04:05:32.759Z,10.31
2023-07-22T04:07:59.218Z,10.22
2023-07-22T04:10:25.698Z,10.25
2023-07-22T04:12:52.271Z,10.25
2023-07-22T04:15:21.176Z,10.23
2023-07-22T04:17:48.111Z,10.18
2023-07-22T04:20:14.704Z,10.21
2023-07-22T04:22:42.865Z,10.33
2023-07-22T04:25:10.190Z,10.31
2023-07-22T04:27:36.832Z,10.31
2023-07-22T04:30:03.950Z,10.34
2023-07-22T04:32:30.627Z,10.31
2023-07-22T04:34:57.199Z,10.34
2023-07-22T04:37:23.701Z,10.36
2023-07-22T04:39:51.175Z,10.41
2023-07-22T04:42:17.875Z,10.47
2023-07-22T04:44:45.279Z,10.50
2023-07-22T04:47:11.992Z,10.60
2023-07-22T04:49:39.167Z,10.62
2023-07-22T04:52:06.390Z,10.61
2023-07-22T04:54:32.879Z,10.64
2023-07-22T04:57:00.910Z,10.71
2023-07-22T04:59:27.433Z,10.76
2023-07-22T05:01:53.955Z,10.78
2023-07-22T05:04:20.478Z,10.80
2023-07-22T05:06:46.917Z,10.88
2023-07-22T05:09:13.654Z,10.96
2023-07-22T05:11:40.125Z,10.99
2023-07-22T05:14:06.581Z,10.98
2023-07-22T05:16:33.094Z,10.92
2023-07-22T05:18:59.563Z,10.99
2023-07-22T05:21:26.087Z,11.08
2023-07-22T05:23:52.586Z,11.08
2023-07-22T05:26:19.218Z,11.07
2023-07-22T05:28:45.666Z,11.08
2023-07-22T05:31:13.343Z,11.14
2023-07-22T05:33:39.847Z,11.15
2023-07-22T05:36:06.478Z,11.24
2023-07-22T05:38:32.966Z,11.30
2023-07-22T05:40:59.603Z,11.38
2023-07-22T05:43:26.110Z,11.49
2023-07-22T05:45:52.587Z,11.56
2023-07-22T05:48:22.201Z,11.57
2023-07-22T05:50:49.073Z,11.53
2023-07-22T05:53:15.665Z,11.51
2023-07-22T05:55:42.132Z,11.58
2023-07-22T05:58:16.540Z,11.69
2023-07-22T06:00:43.011Z,11.62
2023-07-22T06:03:10.197Z,11.67
2023-07-22T06:05:38.992Z,11.78
2023-07-22T06:08:06.216Z,11.82
2023-07-22T06:10:35.638Z,11.87
2023-07-22T06:13:02.212Z,11.78
2023-07-22T06:15:28.715Z,11.76
2023-07-22T06:17:55.279Z,11.82
2023-07-22T06:20:21.876Z,11.78
2023-07-22T06:22:48.419Z,11.92
2023-07-22T06:25:16.550Z,11.96
2023-07-22T06:27:43.063Z,12.00
2023-07-22T06:30:10.090Z,11.98
2023-07-22T06:32:38.477Z,12.09
2023-07-22T06:35:08.547Z,12.14
2023-07-22T06:37:35.221Z,12.20
2023-07-22T06:40:02.877Z,12.34
2023-07-22T06:42:29.432Z,12.40
2023-07-22T06:44:56.153Z,12.54
2023-07-22T06:47:22.753Z,12.52
2023-07-22T06:49:49.372Z,12.68
2023-07-22T06:52:15.931Z,12.94
2023-07-22T06:54:42.539Z,13.05
2023-07-22T06:57:11.311Z,13.00
2023-07-22T06:59:37.829Z,13.16
2023-07-22T07:02:08.938Z,13.30
2023-07-22T07:04:36.434Z,13.37
2023-07-22T07:07:03.861Z,13.50
2023-07-22T07:09:30.381Z,13.55
2023-07-22T07:11:58.253Z,13.69
2023-07-22T07:14:25.902Z,13.67
2023-07-22T07:16:52.422Z,13.96
2023-07-22T07:19:19.329Z,13.94
2023-07-22T07:21:45.839Z,14.07
2023-07-22T07:24:12.357Z,14.06
2023-07-22T07:26:39.685Z,14.32
2023-07-22T07:29:06.205Z,14.36
2023-07-22T07:31:33.714Z,14.44
2023-07-22T07:34:00.463Z,14.78
2023-07-22T07:36:27.304Z,14.55
2023-07-22T07:38:54.114Z,14.46
2023-07-22T07:41:21.456Z,14.52
2023-07-22T07:43:48.134Z,15.10
2023-07-22T07:46:22.928Z,15.17
2023-07-22T07:48:52.536Z,15.36
2023-07-22T07:51:20.508Z,15.42
2023-07-22T07:53:48.812Z,15.47
2023-07-22T07:56:17.089Z,15.18
2023-07-22T07:58:45.323Z,15.33
2023-07-22T08:01:12.986Z,15.38
2023-07-22T08:03:41.167Z,15.99
2023-07-22T08:06:08.774Z,16.52
2023-07-22T08:08:35.985Z,17.34
2023-07-22T08:11:04.549Z,17.19
2023-07-22T08:13:32.671Z,16.99
2023-07-22T08:15:59.678Z,16.51
2023-07-22T08:18:27.800Z,16.24
2023-07-22T08:21:00.179Z,16.29
2023-07-22T08:23:26.909Z,16.09
2023-07-22T08:25:53.456Z,16.24
2023-07-22T08:28:20.011Z,16.40
2023-07-22T08:30:46.711Z,16.29
2023-07-22T08:33:15.218Z,16.31
2023-07-22T08:35:44.152Z,16.40
2023-07-22T08:38:10.727Z,16.63
2023-07-22T08:40:38.715Z,16.96
2023-07-22T08:43:06.738Z,17.44
2023-07-22T08:45:37.422Z,17.50
2023-07-22T08:48:08.947Z,17.67
2023-07-22T08:50:45.666Z,17.83
2023-07-22T08:53:13.704Z,17.73
2023-07-22T08:55:43.416Z,17.60
2023-07-22T08:58:10.866Z,17.72
2023-07-22T09:00:39.030Z,17.67
2023-07-22T09:03:06.386Z,17.73
2023-07-22T09:05:34.592Z,18.31
2023-07-22T09:08:05.453Z,18.34
2023-07-22T09:10:32.980Z,18.25
2023-07-22T09:13:01.328Z,18.40
2023-07-22T09:15:28.767Z,18.87
2023-07-22T09:17:55.702Z,18.78
2023-07-22T09:20:22.458Z,18.74
2023-07-22T09:22:59.501Z,19.30
2023-07-22T09:25:34.649Z,19.52
2023-07-22T09:28:01.678Z,19.77
2023-07-22T09:30:46.871Z,20.33
2023-07-22T09:33:26.553Z,20.94
2023-07-22T09:35:56.040Z,21.29
2023-07-22T09:38:26.417Z,21.22
2023-07-22T09:40:53.581Z,21.43
2023-07-22T09:43:20.384Z,21.26
2023-07-22T09:45:50.871Z,20.97
2023-07-22T09:48:17.707Z,21.83
2023-07-22T09:50:44.617Z,21.31
2023-07-22T09:53:16.712Z,20.91
2023-07-22T09:55:43.230Z,21.41
2023-07-22T09:58:10.696Z,21.40
2023-07-22T10:00:38.073Z,21.43
2023-07-22T10:03:10.297Z,21.69
2023-07-22T10:05:39.648Z,22.56
2023-07-22T10:08:38.608Z,21.73
2023-07-22T10:11:08.981Z,21.85
2023-07-22T10:13:36.453Z,21.93
2023-07-22T10:16:03.741Z,22.00
2023-07-22T10:18:32.871Z,22.82
2023-07-22T10:21:00.774Z,24.18
2023-07-22T10:23:28.004Z,24.02
2023-07-22T10:25:55.758Z,25.09
2023-07-22T10:28:24.044Z,25.19
2023-07-22T10:30:52.792Z,25.72
2023-07-22T10:33:19.403Z,26.01
2023-07-22T10:36:04.658Z,26.20
2023-07-22T10:38:31.393Z,25.89
2023-07-22T10:40:58.110Z,26.31
2023-07-22T10:43:33.118Z,25.07
2023-07-22T10:46:07.128Z,24.22
2023-07-22T10:48:38.689Z,23.85
2023-07-22T10:51:11.269Z,24.14
2023-07-22T10:53:51.296Z,22.71
2023-07-22T10:56:21.375Z,21.72
2023-07-22T10:58:48.025Z,21.28
2023-07-22T11:01:29.894Z,20.39
2023-07-22T11:04:15.838Z,20.90
2023-07-22T11:06:45.153Z,21.36
2023-07-22T11:09:36.203Z,21.92
2023-07-22T11:12:14.013Z,21.41
2023-07-22T11:14:49.673Z,20.36
2023-07-22T11:17:18.650Z,19.96
2023-07-22T11:19:46.278Z,20.40
2023-07-22T11:22:13.371Z,20.12
2023-07-22T11:24:40.003Z,20.49
2023-07-22T11:27:09.464Z,20.66
2023-07-22T11:29:36.822Z,20.43
2023-07-22T11:32:04.360Z,20.78
2023-07-22T11:34:32.938Z,20.56
2023-07-22T11:36:59.682Z,20.85
2023-07-22T11:39:28.015Z,20.76
2023-07-22T11:41:54.746Z,21.09
2023-07-22T11:44:23.880Z,20.83
2023-07-22T11:46:57.498Z,21.00
2023-07-22T11:49:29.835Z,21.02
2023-07-22T11:52:20.137Z,20.89
2023-07-22T11:54:48.077Z,20.44
2023-07-22T11:57:16.947Z,20.63
2023-07-22T11:59:51.239Z,20.40
2023-07-22T12:02:20.767Z,20.26
2023-07-22T12:04:54.687Z,20.58
2023-07-22T12:07:32.969Z,20.40
2023-07-22T12:10:02.099Z,20.13
2023-07-22T12:12:42.880Z,20.28
2023-07-22T12:15:14.505Z,20.20
2023-07-22T12:17:45.631Z,20.39
2023-07-22T12:20:12.574Z,20.38
2023-07-22T12:22:39.088Z,20.39
2023-07-22T12:25:07.812Z,20.26
2023-07-22T12:27:34.273Z,20.24
2023-07-22T12:30:00.811Z,20.09
2023-07-22T12:32:27.346Z,19.97
2023-07-22T12:34:53.917Z,19.81
2023-07-22T12:37:20.606Z,20.04
2023-07-22T12:39:47.116Z,19.88
2023-07-22T12:42:13.620Z,19.94
2023-07-22T12:44:40.145Z,19.90
2023-07-22T12:47:07.066Z,19.75
2023-07-22T12:49:33.540Z,19.79
2023-07-22T12:52:04.926Z,19.76
2023-07-22T12:54:34.508Z,19.77
2023-07-22T12:57:01.025Z,19.73
2023-07-22T12:59:27.591Z,19.62
2023-07-22T13:01:54.893Z,19.99
2023-07-22T13:04:21.442Z,19.99
2023-07-22T13:06:48.035Z,19.93
2023-07-22T13:09:16.895Z,19.90
2023-07-22T13:11:43.418Z,19.88
2023-07-22T13:14:13.209Z,19.71
2023-07-22T13:16:39.662Z,19.70
2023-07-22T13:19:06.352Z,19.81
2023-07-22T13:21:32.855Z,19.73
2023-07-22T13:23:59.406Z,19.88
2023-07-22T13:26:28.294Z,19.87
2023-07-22T13:28:54.779Z,19.97
2023-07-22T13:31:21.487Z,19.92
2023-07-22T13:33:48.030Z,19.83
2023-07-22T13:36:15.417Z,19.64
2023-07-22T13:38:41.922Z,19.71
2023-07-22T13:41:09.940Z,19.58
2023-07-22T13:43:36.404Z,19.64
2023-07-22T13:46:02.918Z,19.35
2023-07-22T13:48:29.549Z,19.34
2023-07-22T13:50:56.060Z,19.48
2023-07-22T13:53:22.584Z,19.37
2023-07-22T13:55:51.183Z,19.21
2023-07-22T13:58:20.381Z,19.05
2023-07-22T14:00:46.983Z,19.15
2023-07-22T14:03:14.373Z,19.09
2023-07-22T14:05:40.891Z,19.04
2023-07-22T14:08:07.404Z,19.07
2023-07-22T14:10:34.005Z,19.08
2023-07-22T14:13:00.492Z,19.11
2023-07-22T14:15:26.947Z,19.15
2023-07-22T14:17:53.532Z,19.12
2023-07-22T14:20:20.698Z,18.97
2023-07-22T14:22:47.271Z,18.99
2023-07-22T14:25:13.723Z,19.05
2023-07-22T14:27:41.292Z,19.09
2023-07-22T14:30:08.984Z,18.91
2023-07-22T14:32:37.944Z,18.90
2023-07-22T14:35:05.448Z,18.94
2023-07-22T14:37:32.023Z,19.02
2023-07-22T14:39:58.667Z,19.08
2023-07-22T14:42:25.118Z,19.07
2023-07-22T14:44:51.592Z,19.16
2023-07-22T14:47:18.080Z,19.08
2023-07-22T14:49:44.677Z,19.06
2023-07-22T14:52:11.199Z,18.93
2023-07-22T14:54:37.663Z,18.76
2023-07-22T14:57:04.454Z,18.81
2023-07-22T14:59:31.703Z,18.77
2023-07-22T15:01:59.146Z,18.74
2023-07-22T15:04:25.711Z,18.88
2023-07-22T15:06:53.096Z,18.79
2023-07-22T15:09:19.602Z,18.79
2023-07-22T15:11:46.083Z,18.88
2023-07-22T15:14:12.685Z,18.66
2023-07-22T15:16:39.264Z,18.69
2023-07-22T15:19:05.748Z,18.49
2023-07-22T15:21:32.257Z,18.37
2023-07-22T15:24:00.521Z,18.33
2023-07-22T15:26:27.027Z,18.39
2023-07-22T15:28:54.276Z,18.40
2023-07-22T15:31:22.269Z,18.44
2023-07-22T15:33:49.829Z,18.38
2023-07-22T15:36:16.837Z,18.62
2023-07-22T15:38:43.326Z,18.71
2023-07-22T15:41:10.538Z,18.90
2023-07-22T15:43:37.888Z,18.86
2023-07-22T15:46:04.490Z,18.73
2023-07-22T15:48:31.119Z,18.54
2023-07-22T15:50:57.679Z,18.35
2023-07-22T15:53:25.148Z,18.32
2023-07-22T15:55:51.667Z,18.34
2023-07-22T15:58:20.602Z,18.33
2023-07-22T16:00:47.109Z,18.34
2023-07-22T16:03:15.173Z,18.45
2023-07-22T16:05:42.366Z,18.53
2023-07-22T16:08:09.010Z,18.40
2023-07-22T16:10:35.861Z,18.31
2023-07-22T16:13:02.846Z,18.20
2023-07-22T16:15:31.918Z,18.15
2023-07-22T16:17:59.098Z,18.14
2023-07-22T16:20:25.613Z,18.11
2023-07-22T16:22:52.082Z,18.00
2023-07-22T16:25:18.580Z,18.02
2023-07-22T16:27:45.098Z,17.95
2023-07-22T16:30:12.445Z,18.00
2023-07-22T16:32:39.809Z,18.08
2023-07-22T16:35:07.540Z,18.05
2023-07-22T16:37:34.464Z,18.04
2023-07-22T16:40:03.438Z,18.09
2023-07-22T16:42:30.026Z,17.97
2023-07-22T16:44:56.643Z,17.99
2023-07-22T16:47:23.244Z,17.90
2023-07-22T16:49:49.760Z,17.95
2023-07-22T16:52:16.731Z,17.99
2023-07-22T16:54:43.197Z,18.03
2023-07-22T16:57:09.781Z,18.05
2023-07-22T16:59:36.276Z,18.08
2023-07-22T17:02:02.797Z,17.95
2023-07-22T17:04:29.343Z,18.04
2023-07-22T17:06:55.801Z,17.98
2023-07-22T17:09:23.375Z,17.97
2023-07-22T17:11:50.483Z,17.89
2023-07-22T17:14:17.020Z,17.81
2023-07-22T17:16:44.366Z,17.81
2023-07-22T17:19:10.855Z,17.72
2023-07-22T17:21:37.370Z,17.72
2023-07-22T17:24:04.204Z,17.70
2023-07-22T17:26:30.682Z,17.73
2023-07-22T17:28:57.247Z,17.70
2023-07-22T17:31:23.823Z,17.67
2023-07-22T17:33:50.394Z,17.64
2023-07-22T17:36:16.876Z,17.64
2023-07-22T17:38:43.336Z,17.63
2023-07-22T17:41:09.875Z,17.66
2023-07-22T17:43:36.375Z,17.68
2023-07-22T17:46:03.885Z,17.66
2023-07-22T17:48:30.406Z,17.65
2023-07-22T17:50:56.894Z,17.64
2023-07-22T17:53:23.664Z,17.62
2023-07-22T17:55:50.420Z,17.56
2023-07-22T17:58:17.733Z,17.52
2023-07-22T18:00:44.318Z,17.48
2023-07-22T18:03:10.973Z,17.44
2023-07-22T18:05:37.751Z,17.39
2023-07-22T18:08:05.259Z,17.32
2023-07-22T18:10:31.739Z,17.26
2023-07-22T18:12:58.258Z,17.22
2023-07-22T18:15:24.730Z,17.15
2023-07-22T18:17:51.269Z,17.09
2023-07-22T18:20:17.842Z,17.07
2023-07-22T18:22:44.355Z,17.01
2023-07-22T18:25:10.820Z,16.97
2023-07-22T18:27:37.299Z,16.93
2023-07-22T18:30:04.191Z,16.88
2023-07-22T18:32:31.115Z,16.82
2023-07-22T18:35:00.481Z,16.79
2023-07-22T18:37:30.207Z,16.73
2023-07-22T18:39:57.214Z,16.69
2023-07-22T18:42:24.062Z,16.64
2023-07-22T18:44:50.637Z,16.58
2023-07-22T18:47:18.177Z,16.53
2023-07-22T18:49:45.916Z,16.48
2023-07-22T18:52:12.441Z,16.44
2023-07-22T18:54:39.790Z,16.41
2023-07-22T18:57:06.693Z,16.38
2023-07-22T18:59:33.161Z,16.32
2023-07-22T19:02:01.040Z,16.25
2023-07-22T19:04:27.588Z,16.20
2023-07-22T19:06:54.815Z,16.16
2023-07-22T19:09:21.622Z,16.11
2023-07-22T19:11:48.188Z,16.07
2023-07-22T19:14:15.133Z,16.01
2023-07-22T19:16:50.905Z,15.96
2023-07-22T19:19:17.752Z,15.93
2023-07-22T19:21:44.274Z,15.89
2023-07-22T19:24:11.539Z,15.86
2023-07-22T19:26:38.051Z,15.83
2023-07-22T19:29:05.302Z,15.76
2023-07-22T19:31:31.812Z,15.74
2023-07-22T19:33:59.225Z,15.69
2023-07-22T19:36:28.910Z,15.68
2023-07-22T19:38:55.429Z,15.64
2023-07-22T19:41:22.047Z,15.63
2023-07-22T19:43:48.815Z,15.62
2023-07-22T19:46:16.830Z,15.58
2023-07-22T19:48:44.377Z,15.52
2023-07-22T19:51:14.812Z,15.50
2023-07-22T19:53:42.842Z,15.53
2023-07-22T19:56:10.306Z,15.49
2023-07-22T19:58:37.656Z,15.44
2023-07-22T20:01:05.697Z,15.39
2023-07-22T20:03:36.864Z,15.34
2023-07-22T20:06:05.839Z,15.32
2023-07-22T20:08:32.451Z,15.34
2023-07-22T20:10:59.739Z,15.23
2023-07-22T20:13:26.402Z,15.25
2023-07-22T20:15:53.094Z,15.19
2023-07-22T20:18:19.711Z,15.18
2023-07-22T20:20:46.308Z,15.20
2023-07-22T20:23:12.859Z,15.18
2023-07-22T20:25:40.979Z,15.16
2023-07-22T20:28:08.411Z,15.16
2023-07-22T20:30:35.264Z,15.13
2023-07-22T20:33:01.926Z,15.14
2023-07-22T20:35:28.794Z,15.13
2023-07-22T20:37:55.599Z,15.12
2023-07-22T20:40:22.267Z,15.09
2023-07-22T20:42:48.785Z,15.07
2023-07-22T20:45:16.071Z,15.04
2023-07-22T20:47:42.684Z,15.07
2023-07-22T20:50:12.604Z,15.06
2023-07-22T20:52:39.196Z,15.04
2023-07-22T20:55:07.618Z,14.99
2023-07-22T20:57:35.532Z,14.96
2023-07-22T21:00:03.407Z,14.94
2023-07-22T21:02:30.018Z,14.89
2023-07-22T21:04:56.640Z,14.87
2023-07-22T21:07:23.119Z,14.85
2023-07-22T21:09:49.692Z,14.84
2023-07-22T21:12:16.244Z,14.79
2023-07-22T21:14:42.799Z,14.77
2023-07-22T21:17:09.554Z,14.79
2023-07-22T21:19:36.017Z,14.82
2023-07-22T21:22:04.627Z,14.83
2023-07-22T21:24:31.719Z,14.85
2023-07-22T21:26:58.419Z,14.86
2023-07-22T21:29:25.159Z,14.87
2023-07-22T21:31:52.537Z,14.87
2023-07-22T21:34:19.104Z,14.88
2023-07-22T21:36:45.653Z,14.89
2023-07-22T21:39:12.189Z,14.85
2023-07-22T21:41:38.734Z,14.84
2023-07-22T21:44:05.311Z,14.83
2023-07-22T21:46:31.817Z,14.79
2023-07-22T21:48:58.321Z,14.76
2023-07-22T21:51:25.697Z,14.71
2023-07-22T21:53:52.725Z,14.70
2023-07-22T21:56:19.263Z,14.67
2023-07-22T21:58:45.832Z,14.62
2023-07-22T22:01:12.629Z,14.60
2023-07-22T22:03:39.175Z,14.56
2023-07-22T22:06:06.615Z,14.49
2023-07-22T22:08:33.157Z,14.50
2023-07-22T22:11:04.867Z,14.52
2023-07-22T22:13:33.760Z,14.46
2023-07-22T22:16:01.150Z,14.45
2023-07-22T22:18:28.372Z,14.47
2023-07-22T22:20:54.899Z,14.45
2023-07-22T22:23:21.424Z,14.45
2023-07-22T22:25:47.984Z,14.44
2023-07-22T22:28:14.455Z,14.46
2023-07-22T22:30:40.973Z,14.46
2023-07-22T22:33:07.481Z,14.47
2023-07-22T22:35:33.932Z,14.50
2023-07-22T22:38:00.439Z,14.46
2023-07-22T22:40:27.095Z,14.45
2023-07-22T22:42:53.605Z,14.45
2023-07-22T22:45:20.210Z,14.43
2023-07-22T22:47:48.045Z,14.44
2023-07-22T22:50:14.623Z,14.45
2023-07-22T22:52:47.798Z,14.45
2023-07-22T22:55:15.126Z,14.46
2023-07-22T22:57:41.913Z,14.44
2023-07-22T23:00:09.157Z,14.39
2023-07-22T23:02:36.633Z,14.36
2023-07-22T23:05:03.456Z,14.32
2023-07-22T23:07:31.561Z,14.30
2023-07-22T23:09:58.464Z,14.32
2023-07-22T23:12:25.155Z,14.31
2023-07-22T23:14:53.870Z,14.32
2023-07-22T23:17:20.625Z,14.30
2023-07-22T23:19:47.099Z,14.33
2023-07-22T23:22:14.338Z,14.29
2023-07-22T23:24:40.837Z,14.30
2023-07-22T23:27:10.181Z,14.27
2023-07-22T23:29:36.694Z,14.25
2023-07-22T23:32:03.258Z,14.27
2023-07-22T23:34:30.352Z,14.16
2023-07-22T23:36:56.833Z,14.12
2023-07-22T23:39:24.078Z,14.14
2023-07-22T23:41:50.551Z,14.04
2023-07-22T23:44:17.067Z,14.07
2023-07-22T23:46:43.557Z,14.02
2023-07-22T23:49:10.057Z,14.05
2023-07-22T23:51:36.548Z,14.08
2023-07-22T23:54:03.501Z,13.97
2023-07-22T23:56:30.117Z,13.92
2023-07-22T23:58:57.343Z,13.94
